createdAt,value
2022-12-11T00:00:37.523Z,34.90
2022-12-11T00:01:37.520Z,35.70
2022-12-11T00:02:37.484Z,35.50
2022-12-11T00:03:37.559Z,35.90
2022-12-11T00:04:37.475Z,36.60
2022-12-11T00:05:37.455Z,36.50
2022-12-11T00:06:37.462Z,35.40
2022-12-11T00:07:37.477Z,36.70
2022-12-11T00:08:37.411Z,37.90
2022-12-11T00:09:37.407Z,33.30
2022-12-11T00:10:38.082Z,34.60
2022-12-11T00:11:37.393Z,36.30
2022-12-11T00:12:37.385Z,34.30
2022-12-11T00:13:37.398Z,35.90
2022-12-11T00:14:37.346Z,34.70
2022-12-11T00:15:37.388Z,36.00
2022-12-11T00:16:37.409Z,36.10
2022-12-11T00:17:37.338Z,35.70
2022-12-11T00:18:37.303Z,36.00
2022-12-11T00:19:37.338Z,35.70
2022-12-11T00:20:37.318Z,35.60
2022-12-11T00:21:37.282Z,36.40
2022-12-11T00:22:37.268Z,34.60
2022-12-11T00:23:37.274Z,35.70
2022-12-11T00:24:37.242Z,36.80
2022-12-11T00:25:37.282Z,37.00
2022-12-11T00:26:37.256Z,35.90
2022-12-11T00:27:37.221Z,34.00
2022-12-11T00:28:37.226Z,37.80
2022-12-11T00:29:37.211Z,36.20
2022-12-11T00:30:37.186Z,34.20
2022-12-11T00:31:37.242Z,34.70
2022-12-11T00:32:37.843Z,34.70
2022-12-11T00:33:37.142Z,37.10
2022-12-11T00:34:37.149Z,32.50
2022-12-11T00:35:37.150Z,34.20
2022-12-11T00:36:37.156Z,33.60
2022-12-11T00:37:37.155Z,31.70
2022-12-11T00:38:37.090Z,32.40
2022-12-11T00:39:37.077Z,32.90
2022-12-11T00:40:37.080Z,31.30
2022-12-11T00:41:37.086Z,32.10
2022-12-11T00:42:37.042Z,33.00
2022-12-11T00:43:37.053Z,31.80
2022-12-11T00:44:37.047Z,32.00
2022-12-11T00:45:37.093Z,30.90
2022-12-11T00:46:37.009Z,31.70
2022-12-11T00:47:36.988Z,30.10
2022-12-11T00:48:37.000Z,31.80
2022-12-11T00:49:36.966Z,32.70
2022-12-11T00:50:36.966Z,31.60
2022-12-11T00:51:36.955Z,30.70
2022-12-11T00:52:36.958Z,30.60
2022-12-11T00:53:36.967Z,30.00
2022-12-11T00:54:36.911Z,29.90
2022-12-11T00:55:36.902Z,31.70
2022-12-11T00:56:36.918Z,29.70
2022-12-11T00:57:36.898Z,30.60
2022-12-11T00:58:36.900Z,28.40
2022-12-11T00:59:36.871Z,29.00
2022-12-11T01:00:37.781Z,27.20
2022-12-11T01:01:36.860Z,30.20
2022-12-11T01:02:36.901Z,28.60
2022-12-11T01:03:36.838Z,30.50
2022-12-11T01:04:36.802Z,28.30
2022-12-11T01:05:36.791Z,27.70
2022-12-11T01:06:36.816Z,28.30
2022-12-11T01:07:36.782Z,27.50
2022-12-11T01:08:38.669Z,27.50
2022-12-11T01:09:36.767Z,28.60
2022-12-11T01:10:36.795Z,28.40
2022-12-11T01:12:26.567Z,25.90
2022-12-11T01:13:26.536Z,27.20
2022-12-11T01:14:26.512Z,26.00
2022-12-11T01:15:26.513Z,26.20
2022-12-11T01:16:26.589Z,26.70
2022-12-11T01:17:26.506Z,25.80
2022-12-11T01:18:26.535Z,23.80
2022-12-11T01:19:26.467Z,26.10
2022-12-11T01:20:26.447Z,25.30
2022-12-11T01:21:26.503Z,25.90
2022-12-11T01:22:26.426Z,27.10
2022-12-11T01:23:26.419Z,26.30
2022-12-11T01:24:26.419Z,25.20
2022-12-11T01:25:26.427Z,23.90
2022-12-11T01:26:26.398Z,26.30
2022-12-11T01:27:26.372Z,24.80
2022-12-11T01:28:26.392Z,24.70
2022-12-11T01:29:26.387Z,25.60
2022-12-11T01:30:26.396Z,24.90
2022-12-11T01:31:26.334Z,25.60
2022-12-11T01:32:26.360Z,23.80
2022-12-11T01:33:26.309Z,25.10
2022-12-11T01:34:26.314Z,25.50
2022-12-11T01:35:26.308Z,25.50
2022-12-11T01:36:26.286Z,24.90
2022-12-11T01:37:26.265Z,23.30
2022-12-11T01:38:26.299Z,25.50
2022-12-11T01:39:26.248Z,26.50
2022-12-11T01:40:26.257Z,24.40
2022-12-11T01:41:26.250Z,25.40
2022-12-11T01:42:26.223Z,25.20
2022-12-11T01:43:26.250Z,25.50
2022-12-11T01:44:26.218Z,24.70
2022-12-11T01:45:27.250Z,24.60
2022-12-11T01:46:26.265Z,25.30
2022-12-11T01:47:26.166Z,23.80
2022-12-11T01:48:26.167Z,24.30
2022-12-11T01:49:26.135Z,24.40
2022-12-11T01:50:26.189Z,24.50
2022-12-11T01:51:26.116Z,24.00
2022-12-11T01:52:26.102Z,22.70
2022-12-11T01:53:26.106Z,22.90
2022-12-11T01:54:26.080Z,23.60
2022-12-11T01:55:26.120Z,23.60
2022-12-11T01:56:26.080Z,24.20
2022-12-11T01:57:26.055Z,23.10
2022-12-11T01:58:26.037Z,24.10
2022-12-11T01:59:26.035Z,23.90
2022-12-11T02:00:26.014Z,25.10
2022-12-11T02:01:26.049Z,23.90
2022-12-11T02:02:26.073Z,24.10
2022-12-11T02:03:26.002Z,22.40
2022-12-11T02:04:25.992Z,23.00
2022-12-11T02:05:26.087Z,23.30
2022-12-11T02:06:25.950Z,22.90
2022-12-11T02:07:25.941Z,24.30
2022-12-11T02:08:26.055Z,24.50
2022-12-11T02:09:25.952Z,23.90
2022-12-11T02:10:25.918Z,25.10
2022-12-11T02:11:25.909Z,23.10
2022-12-11T02:12:25.881Z,24.60
2022-12-11T02:13:25.894Z,24.10
2022-12-11T02:14:25.892Z,23.20
2022-12-11T02:15:25.903Z,22.70
2022-12-11T02:16:25.923Z,21.50
2022-12-11T02:17:25.829Z,21.30
2022-12-11T02:18:25.820Z,20.60
2022-12-11T02:19:25.806Z,21.00
2022-12-11T02:20:25.883Z,20.10
2022-12-11T02:21:25.817Z,20.20
2022-12-11T02:22:25.781Z,20.20
2022-12-11T02:23:25.762Z,18.90
2022-12-11T02:24:25.759Z,17.60
2022-12-11T02:25:25.741Z,18.40
2022-12-11T02:26:25.755Z,19.40
2022-12-11T02:27:25.761Z,18.70
2022-12-11T02:28:25.748Z,18.00
2022-12-11T02:29:25.697Z,17.70
2022-12-11T02:30:25.697Z,17.60
2022-12-11T02:31:25.787Z,17.30
2022-12-11T02:32:25.717Z,17.70
2022-12-11T02:33:25.694Z,19.90
2022-12-11T02:34:25.657Z,18.90
2022-12-11T02:35:25.631Z,19.70
2022-12-11T02:36:25.635Z,19.60
2022-12-11T02:37:25.642Z,20.50
2022-12-11T02:38:25.600Z,21.10
2022-12-11T02:39:25.606Z,20.20
2022-12-11T02:40:25.629Z,21.70
2022-12-11T02:41:25.567Z,20.50
2022-12-11T02:42:25.608Z,19.90
2022-12-11T02:43:25.583Z,21.10
2022-12-11T02:44:25.578Z,20.50
2022-12-11T02:45:25.532Z,20.50
2022-12-11T02:46:25.553Z,19.90
2022-12-11T02:47:25.509Z,21.00
2022-12-11T02:48:25.514Z,19.60
2022-12-11T02:49:25.493Z,22.00
2022-12-11T02:50:25.496Z,20.30
2022-12-11T02:51:25.489Z,20.40
2022-12-11T02:52:25.475Z,21.80
2022-12-11T02:53:25.450Z,20.20
2022-12-11T02:54:25.425Z,19.30
2022-12-11T02:55:25.432Z,19.40
2022-12-11T02:56:25.421Z,21.00
2022-12-11T02:57:25.409Z,20.80
2022-12-11T02:58:25.438Z,21.00
2022-12-11T02:59:25.382Z,20.10
2022-12-11T03:00:25.393Z,19.30
2022-12-11T03:01:25.414Z,19.40
2022-12-11T03:02:25.420Z,19.10
2022-12-11T03:03:25.326Z,17.70
2022-12-11T03:04:25.373Z,18.60
2022-12-11T03:05:25.305Z,18.60
2022-12-11T03:06:25.330Z,17.30
2022-12-11T03:07:25.284Z,18.80
2022-12-11T03:08:25.368Z,18.10
2022-12-11T03:09:25.261Z,18.00
2022-12-11T03:10:25.304Z,17.70
2022-12-11T03:11:25.275Z,16.80
2022-12-11T03:12:25.247Z,16.70
2022-12-11T03:13:25.223Z,15.00
2022-12-11T03:14:25.224Z,15.70
2022-12-11T03:15:25.236Z,17.20
2022-12-11T03:16:25.264Z,15.90
2022-12-11T03:17:25.172Z,16.50
2022-12-11T03:18:25.182Z,17.10
2022-12-11T03:19:25.184Z,16.20
2022-12-11T03:20:25.161Z,17.00
2022-12-11T03:21:25.128Z,16.50
2022-12-11T03:22:25.175Z,16.30
2022-12-11T03:23:25.139Z,15.90
2022-12-11T03:24:25.118Z,15.80
2022-12-11T03:25:25.105Z,15.70
2022-12-11T03:26:25.072Z,18.10
2022-12-11T03:27:25.067Z,17.20
2022-12-11T03:28:25.087Z,15.50
2022-12-11T03:29:25.052Z,17.80
2022-12-11T03:30:25.144Z,17.80
2022-12-11T03:31:25.026Z,16.90
2022-12-11T03:32:25.007Z,17.50
2022-12-11T03:33:25.003Z,17.20
2022-12-11T03:34:25.011Z,16.40
2022-12-11T03:35:25.018Z,16.50
2022-12-11T03:36:24.970Z,17.00
2022-12-11T03:37:24.970Z,16.90
2022-12-11T03:38:24.944Z,17.30
2022-12-11T03:39:24.951Z,17.20
2022-12-11T03:40:24.974Z,16.50
2022-12-11T03:41:24.927Z,16.60
2022-12-11T03:42:24.911Z,17.10
2022-12-11T03:43:24.903Z,17.00
2022-12-11T03:44:24.882Z,16.40
2022-12-11T03:45:24.895Z,16.50
2022-12-11T03:46:24.968Z,16.90
2022-12-11T03:47:24.849Z,16.60
2022-12-11T03:48:24.848Z,17.40
2022-12-11T03:49:24.858Z,16.70
2022-12-11T03:50:24.824Z,16.80
2022-12-11T03:51:24.819Z,16.30
2022-12-11T03:52:24.832Z,16.60
2022-12-11T03:53:24.789Z,17.60
2022-12-11T03:54:24.777Z,16.60
2022-12-11T03:55:24.795Z,16.50
2022-12-11T03:56:24.768Z,17.30
2022-12-11T03:57:24.737Z,16.70
2022-12-11T03:58:24.750Z,17.30
2022-12-11T03:59:24.720Z,16.40
2022-12-11T04:00:24.727Z,16.70
2022-12-11T04:01:24.731Z,17.90
2022-12-11T04:02:24.691Z,16.80
2022-12-11T04:03:24.697Z,15.60
2022-12-11T04:04:24.761Z,16.60
2022-12-11T04:05:24.710Z,16.30
2022-12-11T04:06:24.651Z,16.70
2022-12-11T04:07:24.624Z,16.30
2022-12-11T04:08:24.675Z,17.30
2022-12-11T04:09:24.606Z,16.60
2022-12-11T04:10:24.638Z,16.40
2022-12-11T04:11:24.600Z,17.30
2022-12-11T04:12:24.591Z,16.50
2022-12-11T04:13:24.574Z,16.40
2022-12-11T04:14:24.549Z,15.10
2022-12-11T04:15:24.545Z,15.00
2022-12-11T04:16:24.546Z,16.20
2022-12-11T04:17:24.538Z,15.90
2022-12-11T04:18:24.506Z,16.60
2022-12-11T04:19:24.499Z,16.00
2022-12-11T04:20:24.520Z,16.50
2022-12-11T04:21:24.483Z,16.40
2022-12-11T04:22:24.491Z,14.80
2022-12-11T04:23:24.463Z,15.30
2022-12-11T04:24:24.469Z,16.40
2022-12-11T04:25:24.450Z,16.60
2022-12-11T04:26:24.446Z,16.40
2022-12-11T04:27:24.426Z,16.00
2022-12-11T04:28:24.429Z,15.10
2022-12-11T04:29:24.404Z,15.60
2022-12-11T04:30:28.033Z,15.60
2022-12-11T04:31:25.411Z,16.10
2022-12-11T04:32:24.355Z,16.70
2022-12-11T04:33:24.343Z,15.50
2022-12-11T04:34:24.373Z,16.20
2022-12-11T04:35:24.342Z,16.00
2022-12-11T04:36:24.347Z,15.60
2022-12-11T04:37:24.315Z,15.30
2022-12-11T04:38:24.295Z,14.90
2022-12-11T04:39:24.278Z,14.70
2022-12-11T04:40:24.327Z,14.70
2022-12-11T04:41:24.256Z,14.90
2022-12-11T04:42:24.288Z,14.90
2022-12-11T04:43:24.234Z,14.90
2022-12-11T04:44:24.254Z,14.50
2022-12-11T04:45:24.216Z,15.40
2022-12-11T04:46:24.290Z,14.80
2022-12-11T04:47:24.218Z,15.70
2022-12-11T04:48:24.195Z,16.10
2022-12-11T04:49:24.194Z,15.60
2022-12-11T04:50:24.174Z,15.30
2022-12-11T04:51:24.167Z,15.40
2022-12-11T04:52:24.163Z,15.80
2022-12-11T04:53:24.168Z,14.90
2022-12-11T04:54:24.115Z,16.50
2022-12-11T04:55:24.108Z,15.30
2022-12-11T04:56:24.098Z,16.20
2022-12-11T04:57:24.096Z,15.50
2022-12-11T04:58:24.101Z,15.60
2022-12-11T04:59:24.074Z,16.10
2022-12-11T05:00:24.092Z,15.20
2022-12-11T05:01:24.131Z,16.60
2022-12-11T05:02:24.110Z,16.00
2022-12-11T05:03:24.021Z,15.10
2022-12-11T05:04:24.006Z,15.40
2022-12-11T05:05:24.064Z,14.30
2022-12-11T05:06:23.985Z,15.40
2022-12-11T05:07:24.017Z,17.60
2022-12-11T05:08:23.998Z,15.70
2022-12-11T05:09:23.964Z,15.60
2022-12-11T05:10:23.980Z,16.00
2022-12-11T05:11:23.941Z,16.30
2022-12-11T05:12:23.929Z,15.60
2022-12-11T05:13:23.920Z,14.90
2022-12-11T05:14:23.903Z,15.20
2022-12-11T05:15:23.912Z,16.40
2022-12-11T05:16:23.989Z,17.20
2022-12-11T05:17:23.884Z,15.00
2022-12-11T05:18:23.854Z,15.10
2022-12-11T05:19:23.883Z,15.70
2022-12-11T05:20:23.842Z,16.10
2022-12-11T05:21:23.837Z,15.70
2022-12-11T05:22:23.844Z,16.00
2022-12-11T05:23:23.830Z,15.40
2022-12-11T05:24:23.792Z,16.30
2022-12-11T05:25:23.777Z,16.90
2022-12-11T05:26:23.792Z,14.90
2022-12-11T05:27:23.801Z,15.70
2022-12-11T05:28:23.749Z,16.60
2022-12-11T05:29:23.790Z,15.50
2022-12-11T05:30:23.737Z,15.80
2022-12-11T05:31:23.749Z,15.50
2022-12-11T05:32:23.731Z,16.30
2022-12-11T05:33:23.719Z,17.60
2022-12-11T05:34:23.696Z,15.90
2022-12-11T05:35:23.694Z,16.30
2022-12-11T05:36:23.672Z,17.60
2022-12-11T05:37:23.662Z,15.80
2022-12-11T05:38:23.651Z,16.20
2022-12-11T05:39:23.655Z,17.00
2022-12-11T05:40:23.622Z,17.90
2022-12-11T05:41:23.626Z,17.60
2022-12-11T05:42:28.646Z,18.20
2022-12-11T05:43:24.616Z,18.50
2022-12-11T05:44:23.585Z,17.30
2022-12-11T05:45:23.561Z,18.10
2022-12-11T05:46:23.589Z,17.60
2022-12-11T05:47:23.561Z,18.10
2022-12-11T05:48:23.589Z,18.10
2022-12-11T05:49:27.428Z,18.30
2022-12-11T05:50:24.509Z,17.90
2022-12-11T05:51:23.498Z,17.20
2022-12-11T05:52:23.490Z,18.10
2022-12-11T05:53:23.557Z,19.10
2022-12-11T05:54:23.465Z,17.50
2022-12-11T05:55:23.471Z,18.90
2022-12-11T05:56:23.465Z,18.80
2022-12-11T05:57:23.430Z,18.90
2022-12-11T05:58:23.422Z,18.00
2022-12-11T05:59:23.501Z,18.10
2022-12-11T06:00:23.411Z,19.40
2022-12-11T06:01:23.399Z,20.00
2022-12-11T06:02:23.466Z,21.30
2022-12-11T06:03:23.371Z,21.30
2022-12-11T06:04:23.410Z,20.90
2022-12-11T06:05:23.376Z,21.40
2022-12-11T06:06:23.339Z,20.10
2022-12-11T06:07:23.338Z,20.20
2022-12-11T06:08:23.341Z,20.60
2022-12-11T06:09:23.324Z,21.20
2022-12-11T06:10:23.290Z,21.40
2022-12-11T06:11:24.392Z,20.90
2022-12-11T06:12:23.300Z,22.10
2022-12-11T06:13:23.275Z,20.80
2022-12-11T06:14:23.249Z,21.30
2022-12-11T06:15:23.255Z,21.90
2022-12-11T06:16:23.316Z,21.80
2022-12-11T06:17:23.281Z,21.60
2022-12-11T06:18:23.272Z,22.30
2022-12-11T06:19:23.192Z,22.40
2022-12-11T06:20:23.213Z,22.20
2022-12-11T06:21:23.169Z,23.10
2022-12-11T06:22:23.166Z,21.60
2022-12-11T06:23:23.149Z,21.70
2022-12-11T06:24:23.145Z,21.40
2022-12-11T06:25:23.179Z,22.10
2022-12-11T06:26:23.119Z,22.20
2022-12-11T06:27:23.105Z,21.60
2022-12-11T06:28:23.102Z,24.00
2022-12-11T06:29:23.112Z,21.20
2022-12-11T06:30:23.094Z,24.90
2022-12-11T06:31:24.238Z,22.40
2022-12-11T06:32:23.052Z,22.80
2022-12-11T06:33:23.039Z,22.90
2022-12-11T06:34:23.045Z,21.70
2022-12-11T06:35:23.051Z,22.80
2022-12-11T06:36:23.028Z,21.50
2022-12-11T06:37:23.008Z,22.80
2022-12-11T06:38:22.986Z,21.00
2022-12-11T06:39:22.975Z,21.80
2022-12-11T06:40:22.996Z,22.30
2022-12-11T06:41:22.967Z,22.60
2022-12-11T06:42:22.962Z,24.00
2022-12-11T06:43:22.974Z,23.40
2022-12-11T06:44:22.925Z,22.40
2022-12-11T06:45:22.915Z,23.20
2022-12-11T06:46:22.997Z,23.70
2022-12-11T06:47:22.897Z,23.90
2022-12-11T06:48:22.877Z,24.80
2022-12-11T06:49:22.947Z,24.00
2022-12-11T06:50:22.866Z,22.40
2022-12-11T06:51:22.862Z,23.60
2022-12-11T06:52:22.879Z,23.00
2022-12-11T06:53:22.833Z,22.70
2022-12-11T06:54:22.813Z,23.60
2022-12-11T06:55:22.816Z,22.90
2022-12-11T06:56:22.853Z,22.70
2022-12-11T06:57:22.791Z,24.50
2022-12-11T06:58:22.785Z,24.20
2022-12-11T06:59:22.771Z,26.00
2022-12-11T07:00:22.753Z,26.20
2022-12-11T07:01:22.903Z,25.00
2022-12-11T07:02:22.805Z,24.90
2022-12-11T07:03:22.724Z,24.40
2022-12-11T07:04:22.724Z,27.60
2022-12-11T07:05:22.731Z,26.30
2022-12-11T07:06:22.719Z,26.90
2022-12-11T07:07:22.701Z,26.20
2022-12-11T07:08:22.739Z,29.60
2022-12-11T07:09:22.657Z,26.80
2022-12-11T07:10:22.655Z,27.80
2022-12-11T07:11:22.651Z,27.60
2022-12-11T07:12:22.658Z,27.80
2022-12-11T07:13:22.639Z,27.50
2022-12-11T07:14:22.605Z,29.10
2022-12-11T07:15:22.586Z,33.30
2022-12-11T07:16:22.677Z,32.70
2022-12-11T07:17:22.615Z,33.50
2022-12-11T07:18:22.553Z,31.90
2022-12-11T07:19:22.567Z,30.50
2022-12-11T07:20:22.584Z,38.40
2022-12-11T07:21:22.524Z,36.40
2022-12-11T07:22:22.518Z,33.90
2022-12-11T07:23:22.496Z,33.60
2022-12-11T07:24:22.528Z,28.70
2022-12-11T07:25:22.520Z,27.60
2022-12-11T07:26:22.497Z,27.90
2022-12-11T07:27:22.467Z,28.30
2022-12-11T07:28:22.456Z,26.90
2022-12-11T07:29:22.430Z,28.10
2022-12-11T07:30:22.436Z,28.40
2022-12-11T07:31:22.466Z,28.90
2022-12-11T07:32:22.535Z,28.00
2022-12-11T07:33:22.403Z,32.90
2022-12-11T07:34:22.406Z,28.00
2022-12-11T07:35:22.404Z,27.80
2022-12-11T07:36:22.379Z,25.40
2022-12-11T07:37:22.387Z,26.80
2022-12-11T07:38:22.382Z,27.40
2022-12-11T07:39:22.332Z,27.10
2022-12-11T07:40:22.328Z,25.50
2022-12-11T07:41:22.345Z,25.50
2022-12-11T07:42:22.306Z,26.30
2022-12-11T07:43:22.317Z,27.50
2022-12-11T07:44:22.273Z,29.40
2022-12-11T07:45:22.268Z,29.20
2022-12-11T07:46:22.342Z,31.70
2022-12-11T07:47:22.239Z,27.90
2022-12-11T07:48:22.231Z,27.30
2022-12-11T07:49:22.260Z,28.30
2022-12-11T07:50:22.221Z,28.50
2022-12-11T07:51:22.212Z,26.80
2022-12-11T07:52:22.182Z,24.90
2022-12-11T07:53:22.173Z,27.70
2022-12-11T07:54:22.194Z,26.50
2022-12-11T07:55:22.199Z,27.60
2022-12-11T07:56:22.172Z,28.40
2022-12-11T07:57:22.125Z,28.00
2022-12-11T07:58:22.116Z,25.10
2022-12-11T07:59:22.117Z,26.00
2022-12-11T08:00:22.104Z,27.00
2022-12-11T08:01:22.152Z,25.80
2022-12-11T08:02:22.112Z,25.60
2022-12-11T08:03:22.062Z,24.90
2022-12-11T08:04:22.756Z,25.30
2022-12-11T08:05:22.057Z,26.00
2022-12-11T08:06:22.056Z,25.10
2022-12-11T08:07:22.037Z,24.50
2022-12-11T08:08:22.068Z,25.60
2022-12-11T08:09:21.996Z,23.90
2022-12-11T08:10:21.989Z,24.80
2022-12-11T08:11:21.996Z,26.20
2022-12-11T08:12:21.995Z,24.80
2022-12-11T08:13:22.029Z,23.50
2022-12-11T08:14:21.957Z,24.80
2022-12-11T08:15:21.930Z,24.30
2022-12-11T08:16:21.983Z,23.90
2022-12-11T08:17:27.384Z,24.10
2022-12-11T08:18:22.920Z,24.70
2022-12-11T08:19:21.927Z,24.40
2022-12-11T08:20:21.896Z,25.20
2022-12-11T08:21:21.865Z,24.10
2022-12-11T08:22:21.859Z,22.70
2022-12-11T08:23:21.847Z,23.60
2022-12-11T08:24:21.831Z,23.20
2022-12-11T08:25:21.856Z,23.00
2022-12-11T08:26:21.812Z,23.70
2022-12-11T08:27:21.819Z,23.20
2022-12-11T08:28:21.806Z,23.00
2022-12-11T08:29:21.811Z,25.20
2022-12-11T08:30:21.780Z,24.30
2022-12-11T08:31:21.831Z,24.20
2022-12-11T08:32:21.745Z,24.40
2022-12-11T08:33:21.738Z,22.80
2022-12-11T08:34:21.751Z,24.20
2022-12-11T08:35:21.726Z,22.50
2022-12-11T08:36:21.712Z,24.70
2022-12-11T08:37:21.728Z,23.60
2022-12-11T08:38:25.460Z,24.00
2022-12-11T08:39:21.674Z,20.70
2022-12-11T08:40:21.658Z,23.60
2022-12-11T08:41:21.651Z,22.80
2022-12-11T08:42:21.658Z,25.00
2022-12-11T08:43:21.677Z,24.80
2022-12-11T08:44:21.659Z,24.20
2022-12-11T08:45:21.617Z,23.40
2022-12-11T08:46:21.651Z,23.80
2022-12-11T08:47:21.589Z,23.60
2022-12-11T08:48:21.588Z,23.10
2022-12-11T08:49:21.596Z,22.00
2022-12-11T08:50:21.546Z,22.90
2022-12-11T08:51:21.548Z,23.00
2022-12-11T08:52:21.561Z,22.10
2022-12-11T08:53:21.520Z,22.50
2022-12-11T08:54:21.513Z,23.70
2022-12-11T08:55:21.544Z,23.30
2022-12-11T08:56:21.484Z,24.00
2022-12-11T08:57:21.491Z,22.90
2022-12-11T08:58:21.475Z,24.40
2022-12-11T08:59:21.459Z,23.50
2022-12-11T09:00:21.585Z,23.70
2022-12-11T09:01:21.631Z,25.90
2022-12-11T09:02:21.497Z,24.90
2022-12-11T09:03:21.410Z,24.30
2022-12-11T09:04:21.417Z,25.10
2022-12-11T09:05:21.396Z,24.20
2022-12-11T09:06:21.390Z,24.60
2022-12-11T09:07:21.405Z,24.10
2022-12-11T09:08:21.523Z,24.80
2022-12-11T09:09:21.348Z,23.40
2022-12-11T09:10:21.430Z,23.60
2022-12-11T09:11:21.337Z,22.70
2022-12-11T09:12:21.307Z,22.30
2022-12-11T09:13:21.337Z,23.40
2022-12-11T09:14:21.287Z,24.80
2022-12-11T09:15:21.325Z,23.80
2022-12-11T09:16:21.437Z,23.70
2022-12-11T09:17:21.263Z,22.30
2022-12-11T09:18:21.243Z,23.00
2022-12-11T09:19:21.275Z,24.20
2022-12-11T09:20:21.252Z,26.30
2022-12-11T09:21:21.249Z,26.00
2022-12-11T09:22:21.207Z,26.90
2022-12-11T09:23:21.204Z,28.00
2022-12-11T09:24:21.206Z,31.30
2022-12-11T09:25:21.176Z,37.50
2022-12-11T09:26:21.156Z,43.20
2022-12-11T09:27:21.209Z,46.00
2022-12-11T09:28:21.157Z,37.10
2022-12-11T09:29:21.152Z,44.60
2022-12-11T09:30:21.110Z,36.60
2022-12-11T09:31:21.171Z,35.40
2022-12-11T09:32:21.134Z,40.30
2022-12-11T09:33:21.092Z,38.80
2022-12-11T09:34:26.000Z,32.50
2022-12-11T09:35:22.060Z,31.90
2022-12-11T09:36:21.044Z,24.30
2022-12-11T09:37:21.053Z,25.00
2022-12-11T09:38:21.033Z,24.00
2022-12-11T09:39:21.038Z,25.00
2022-12-11T09:40:21.011Z,22.80
2022-12-11T09:41:21.030Z,22.50
2022-12-11T09:42:20.995Z,21.70
2022-12-11T09:43:20.970Z,20.80
2022-12-11T09:44:20.974Z,22.80
2022-12-11T09:45:20.971Z,19.80
2022-12-11T09:46:24.543Z,19.80
2022-12-11T09:47:20.930Z,21.90
2022-12-11T09:48:20.929Z,20.70
2022-12-11T09:49:20.908Z,20.90
2022-12-11T09:50:20.932Z,20.30
2022-12-11T09:51:20.912Z,20.60
2022-12-11T09:52:20.888Z,22.20
2022-12-11T09:53:20.862Z,21.60
2022-12-11T09:54:20.848Z,21.30
2022-12-11T09:55:20.867Z,20.60
2022-12-11T09:56:20.941Z,21.10
2022-12-11T09:57:20.841Z,21.00
2022-12-11T09:58:20.829Z,19.90
2022-12-11T09:59:20.795Z,22.40
2022-12-11T10:00:20.800Z,23.00
2022-12-11T10:01:20.843Z,23.00
2022-12-11T10:02:20.826Z,24.40
2022-12-11T10:03:20.782Z,24.20
2022-12-11T10:04:20.770Z,24.10
2022-12-11T10:05:20.730Z,23.20
2022-12-11T10:06:20.718Z,20.70
2022-12-11T10:07:20.743Z,20.70
2022-12-11T10:08:20.788Z,21.80
2022-12-11T10:09:20.726Z,21.90
2022-12-11T10:10:20.675Z,20.10
2022-12-11T10:11:20.683Z,17.00
2022-12-11T10:12:20.678Z,17.20
2022-12-11T10:13:20.682Z,17.60
2022-12-11T10:14:20.644Z,17.60
2022-12-11T10:15:20.653Z,18.50
2022-12-11T10:16:20.710Z,18.60
2022-12-11T10:17:20.601Z,18.70
2022-12-11T10:18:20.589Z,17.70
2022-12-11T10:19:20.601Z,18.90
2022-12-11T10:20:20.598Z,17.80
2022-12-11T10:21:20.604Z,18.70
2022-12-11T10:22:20.543Z,20.10
2022-12-11T10:23:20.544Z,22.50
2022-12-11T10:24:57.490Z,21.00
2022-12-11T10:25:21.537Z,18.20
2022-12-11T10:26:20.521Z,17.50
2022-12-11T10:27:20.519Z,17.50
2022-12-11T10:28:20.478Z,19.20
2022-12-11T10:29:20.496Z,18.70
2022-12-11T10:30:20.477Z,17.90
2022-12-11T10:31:20.504Z,18.60
2022-12-11T10:32:20.449Z,17.60
2022-12-11T10:33:20.473Z,18.40
2022-12-11T10:34:20.430Z,16.60
2022-12-11T10:35:20.427Z,16.40
2022-12-11T10:36:20.428Z,16.60
2022-12-11T10:37:20.395Z,16.60
2022-12-11T10:38:20.398Z,17.00
2022-12-11T10:39:20.396Z,16.60
2022-12-11T10:40:20.363Z,16.70
2022-12-11T10:41:20.341Z,16.30
2022-12-11T10:42:20.355Z,16.70
2022-12-11T10:43:20.330Z,17.90
2022-12-11T10:44:20.324Z,17.80
2022-12-11T10:45:20.311Z,17.40
2022-12-11T10:46:20.359Z,18.50
2022-12-11T10:47:20.281Z,16.50
2022-12-11T10:48:20.295Z,17.60
2022-12-11T10:49:20.256Z,17.60
2022-12-11T10:50:20.240Z,16.90
2022-12-11T10:51:20.272Z,17.00
2022-12-11T10:52:20.251Z,17.50
2022-12-11T10:53:20.218Z,18.10
2022-12-11T10:54:20.201Z,16.90
2022-12-11T10:55:20.196Z,16.60
2022-12-11T10:56:20.174Z,15.90
2022-12-11T10:57:20.218Z,16.80
2022-12-11T10:58:20.152Z,16.30
2022-12-11T10:59:24.005Z,17.40
2022-12-11T11:00:20.140Z,17.10
2022-12-11T11:01:20.170Z,17.40
2022-12-11T11:02:20.219Z,16.30
2022-12-11T11:03:20.128Z,17.90
2022-12-11T11:04:20.087Z,16.90
2022-12-11T11:05:20.076Z,16.40
2022-12-11T11:06:20.088Z,16.00
2022-12-11T11:07:20.073Z,16.70
2022-12-11T11:08:20.175Z,17.90
2022-12-11T11:09:20.049Z,16.80
2022-12-11T11:10:20.027Z,16.80
2022-12-11T11:11:20.045Z,16.10
2022-12-11T11:12:28.034Z,15.80
2022-12-11T11:13:20.003Z,15.40
2022-12-11T11:14:20.015Z,14.40
2022-12-11T11:15:20.012Z,15.20
2022-12-11T11:16:20.040Z,14.60
2022-12-11T11:17:19.968Z,13.80
2022-12-11T11:18:19.962Z,14.60
2022-12-11T11:19:19.976Z,15.00
2022-12-11T11:20:20.822Z,15.20
2022-12-11T11:21:19.901Z,15.30
2022-12-11T11:22:19.926Z,16.30
2022-12-11T11:23:19.916Z,14.30
2022-12-11T11:24:19.910Z,13.30
2022-12-11T11:25:19.890Z,14.90
2022-12-11T11:26:19.851Z,14.10
2022-12-11T11:27:19.928Z,15.90
2022-12-11T11:28:19.834Z,16.40
2022-12-11T11:29:19.837Z,15.60
2022-12-11T11:30:19.848Z,16.20
2022-12-11T11:31:19.859Z,15.80
2022-12-11T11:32:19.799Z,15.60
2022-12-11T11:33:19.810Z,15.80
2022-12-11T11:34:19.780Z,16.60
2022-12-11T11:35:19.783Z,15.20
2022-12-11T11:36:19.788Z,20.00
2022-12-11T11:37:19.724Z,16.10
2022-12-11T11:38:19.739Z,12.60
2022-12-11T11:39:19.715Z,11.00
2022-12-11T11:40:19.736Z,12.00
2022-12-11T11:41:19.684Z,11.20
2022-12-11T11:42:19.694Z,11.80
2022-12-11T11:43:19.666Z,11.60
2022-12-11T11:44:19.646Z,12.90
2022-12-11T11:45:19.756Z,12.80
2022-12-11T11:46:19.691Z,11.70
2022-12-11T11:47:19.654Z,13.40
2022-12-11T11:48:19.667Z,12.40
2022-12-11T11:49:19.641Z,13.10
2022-12-11T11:50:19.589Z,12.30
2022-12-11T11:51:19.591Z,12.00
2022-12-11T11:52:19.598Z,12.80
2022-12-11T11:53:19.563Z,12.80
2022-12-11T11:54:19.583Z,11.80
2022-12-11T11:55:22.378Z,11.20
2022-12-11T11:56:19.545Z,11.90
2022-12-11T11:57:19.520Z,12.70
2022-12-11T11:58:19.504Z,11.20
2022-12-11T11:59:19.501Z,12.10
2022-12-11T12:00:19.516Z,12.00
2022-12-11T12:01:19.501Z,12.10
2022-12-11T12:02:19.539Z,13.60
2022-12-11T12:03:19.471Z,11.50
2022-12-11T12:04:19.441Z,11.20
2022-12-11T12:05:19.450Z,11.00
2022-12-11T12:06:19.412Z,11.70
2022-12-11T12:07:19.499Z,13.10
2022-12-11T12:08:19.468Z,12.30
2022-12-11T12:09:19.466Z,13.10
2022-12-11T12:10:19.404Z,11.30
2022-12-11T12:11:19.356Z,9.90
2022-12-11T12:12:25.444Z,10.80
2022-12-11T12:13:48.190Z,10.40
2022-12-11T12:14:50.686Z,11.90
2022-12-11T12:15:20.307Z,12.50
2022-12-11T12:16:50.896Z,10.90
2022-12-11T12:17:20.341Z,11.30
2022-12-11T12:18:19.288Z,12.10
2022-12-11T12:19:19.367Z,13.50
2022-12-11T12:20:19.266Z,11.80
2022-12-11T12:21:19.287Z,12.80
2022-12-11T12:22:19.288Z,13.60
2022-12-11T12:23:19.229Z,16.20
2022-12-11T12:24:19.225Z,20.20
2022-12-11T12:25:19.232Z,18.40
2022-12-11T12:26:19.219Z,17.90
2022-12-11T12:27:50.392Z,16.60
2022-12-11T12:28:20.225Z,15.70
2022-12-11T12:29:19.167Z,15.00
2022-12-11T12:30:22.953Z,15.90
2022-12-11T12:31:19.178Z,15.80
2022-12-11T12:32:19.155Z,16.60
2022-12-11T12:33:19.152Z,17.50
2022-12-11T12:34:19.100Z,16.20
2022-12-11T12:35:19.105Z,17.50
2022-12-11T12:36:19.081Z,16.50
2022-12-11T12:37:19.090Z,18.80
2022-12-11T12:38:19.100Z,17.10
2022-12-11T12:39:19.090Z,18.80
2022-12-11T12:40:19.136Z,19.00
2022-12-11T12:41:19.039Z,19.60
2022-12-11T12:42:19.022Z,17.40
2022-12-11T12:43:19.034Z,17.40
2022-12-11T12:44:19.072Z,16.90
2022-12-11T12:45:18.999Z,18.40
2022-12-11T12:46:19.026Z,18.40
2022-12-11T12:47:18.957Z,18.90
2022-12-11T12:48:18.964Z,17.40
2022-12-11T12:49:18.969Z,18.90
2022-12-11T12:50:18.967Z,18.70
2022-12-11T12:51:18.941Z,18.80
2022-12-11T12:52:18.911Z,18.30
2022-12-11T12:53:18.923Z,19.30